createdAt,value
2018-10-16T00:01:41.258Z,20.33
2018-10-16T00:04:09.702Z,18.13
2018-10-16T00:06:38.111Z,17.60
2018-10-16T00:09:07.983Z,19.27
2018-10-16T00:11:36.459Z,20.40
2018-10-16T00:14:04.890Z,18.40
2018-10-16T00:16:33.300Z,18.50
2018-10-16T00:19:01.730Z,19.80
2018-10-16T00:21:30.139Z,18.87
2018-10-16T00:23:58.563Z,17.50
2018-10-16T00:26:26.968Z,18.27
2018-10-16T00:28:55.398Z,18.77
2018-10-16T00:31:23.827Z,19.60
2018-10-16T00:33:52.263Z,19.27
2018-10-16T00:36:20.676Z,20.70
2018-10-16T00:38:49.102Z,23.47
2018-10-16T00:41:17.503Z,21.53
2018-10-16T00:43:45.931Z,20.60
2018-10-16T00:46:14.358Z,18.93
2018-10-16T00:48:42.763Z,20.40
2018-10-16T00:51:11.190Z,21.10
2018-10-16T00:53:39.600Z,18.70
2018-10-16T00:56:08.027Z,18.77
2018-10-16T00:58:36.602Z,19.03
2018-10-16T01:01:05.035Z,20.30
2018-10-16T01:03:33.435Z,20.40
2018-10-16T01:06:01.869Z,20.30
2018-10-16T01:08:30.279Z,19.97
2018-10-16T01:10:58.706Z,19.53
2018-10-16T01:13:27.122Z,19.03
2018-10-16T01:15:55.550Z,19.30
2018-10-16T01:18:23.969Z,18.57
2018-10-16T01:20:52.399Z,20.53
2018-10-16T01:23:20.811Z,21.20
2018-10-16T01:25:49.240Z,19.93
2018-10-16T01:28:17.634Z,20.27
2018-10-16T01:30:46.078Z,21.43
2018-10-16T01:33:14.479Z,22.30
2018-10-16T01:35:42.906Z,22.03
2018-10-16T01:38:11.303Z,21.13
2018-10-16T01:40:39.731Z,20.10
2018-10-16T01:43:08.135Z,17.30
2018-10-16T01:45:36.570Z,20.37
2018-10-16T01:48:05.219Z,20.20
2018-10-16T01:50:33.647Z,22.77
2018-10-16T01:53:02.047Z,22.13
2018-10-16T01:55:30.466Z,20.70
2018-10-16T01:57:58.857Z,18.73
2018-10-16T02:00:27.273Z,21.17
2018-10-16T02:02:55.677Z,20.20
2018-10-16T02:05:24.099Z,21.60
2018-10-16T02:07:52.506Z,20.07
2018-10-16T02:10:20.926Z,19.50
2018-10-16T02:12:49.326Z,20.00
2018-10-16T02:15:17.768Z,21.70
2018-10-16T02:17:46.167Z,19.93
2018-10-16T02:20:14.604Z,21.80
2018-10-16T02:22:43.021Z,19.70
2018-10-16T02:25:11.613Z,20.50
2018-10-16T02:27:40.685Z,22.13
2018-10-16T02:30:09.157Z,21.60
2018-10-16T02:32:37.554Z,21.60
2018-10-16T02:35:07.185Z,22.77
2018-10-16T02:37:35.630Z,22.50
2018-10-16T02:40:04.097Z,18.60
2018-10-16T02:42:32.525Z,18.97
2018-10-16T02:45:00.922Z,19.37
2018-10-16T02:47:29.363Z,19.80
2018-10-16T02:49:57.767Z,20.57
2018-10-16T02:52:26.188Z,21.13
2018-10-16T02:54:54.589Z,21.00
2018-10-16T02:57:23.015Z,20.33
2018-10-16T02:59:51.424Z,20.40
2018-10-16T03:02:19.850Z,17.60
2018-10-16T03:04:48.241Z,19.53
2018-10-16T03:07:16.669Z,20.73
2018-10-16T03:09:45.071Z,20.40
2018-10-16T03:12:13.498Z,19.97
2018-10-16T03:14:41.903Z,18.03
2018-10-16T03:17:10.337Z,19.43
2018-10-16T03:19:39.013Z,20.37
2018-10-16T03:22:07.720Z,18.40
2018-10-16T03:24:36.120Z,19.30
2018-10-16T03:27:04.550Z,19.13
2018-10-16T03:29:32.972Z,25.27
2018-10-16T03:32:01.399Z,27.37
2018-10-16T03:34:29.815Z,23.17
2018-10-16T03:36:58.257Z,24.00
2018-10-16T03:39:26.667Z,22.27
2018-10-16T03:41:55.112Z,23.13
2018-10-16T03:44:23.509Z,21.03
2018-10-16T03:46:51.935Z,23.20
2018-10-16T03:49:20.333Z,25.57
2018-10-16T03:51:48.764Z,23.17
2018-10-16T03:54:17.162Z,23.00
2018-10-16T03:56:45.602Z,20.80
2018-10-16T03:59:14.010Z,22.80
2018-10-16T04:01:42.421Z,20.77
2018-10-16T04:04:10.817Z,21.60
2018-10-16T04:06:39.254Z,20.40
2018-10-16T04:09:07.967Z,22.00
2018-10-16T04:11:36.486Z,21.07
2018-10-16T04:14:04.963Z,20.33
2018-10-16T04:16:33.355Z,20.60
2018-10-16T04:19:01.726Z,21.23
2018-10-16T04:21:34.568Z,21.80
2018-10-16T04:24:02.933Z,20.97
2018-10-16T04:26:31.310Z,20.83
2018-10-16T04:28:59.752Z,18.77
2018-10-16T04:31:28.228Z,22.07
2018-10-16T04:33:56.620Z,20.70
2018-10-16T04:36:24.991Z,19.90
2018-10-16T04:38:53.394Z,18.77
2018-10-16T04:41:21.830Z,20.40
2018-10-16T04:43:50.350Z,20.50
2018-10-16T04:46:18.583Z,20.97
2018-10-16T04:48:47.009Z,19.37
2018-10-16T04:51:15.365Z,22.60
2018-10-16T04:53:43.749Z,21.30
2018-10-16T04:56:12.125Z,20.73
2018-10-16T04:58:40.539Z,20.43
2018-10-16T05:01:09.097Z,21.70
2018-10-16T05:03:37.615Z,20.90
2018-10-16T05:06:06.015Z,21.93
2018-10-16T05:08:34.419Z,21.47
2018-10-16T05:11:02.805Z,21.30
2018-10-16T05:13:31.204Z,23.80
2018-10-16T05:15:59.575Z,19.57
2018-10-16T05:18:28.088Z,20.87
2018-10-16T05:20:56.442Z,22.67
2018-10-16T05:23:24.837Z,20.47
2018-10-16T05:25:53.231Z,21.50
2018-10-16T05:28:21.626Z,21.63
2018-10-16T05:30:50.100Z,18.90
2018-10-16T05:33:18.446Z,22.33
2018-10-16T05:35:46.822Z,20.60
2018-10-16T05:38:15.218Z,22.00
2018-10-16T05:40:43.593Z,20.90
2018-10-16T05:43:11.990Z,22.93
2018-10-16T05:45:42.300Z,23.43
2018-10-16T05:48:10.703Z,22.53
2018-10-16T05:50:39.444Z,21.67
2018-10-16T05:53:07.841Z,22.70
2018-10-16T05:55:36.222Z,21.23
2018-10-16T05:58:04.622Z,21.97
2018-10-16T06:00:35.695Z,22.57
2018-10-16T06:03:04.110Z,21.67
2018-10-16T06:05:32.541Z,21.80
2018-10-16T06:08:00.970Z,22.27
2018-10-16T06:10:29.357Z,21.43
2018-10-16T06:12:57.728Z,21.23
2018-10-16T06:15:26.128Z,21.93
2018-10-16T06:17:54.503Z,22.47
2018-10-16T06:20:22.897Z,21.17
2018-10-16T06:22:51.279Z,22.00
2018-10-16T06:25:19.674Z,22.33
2018-10-16T06:27:48.114Z,21.43
2018-10-16T06:30:16.551Z,22.80
2018-10-16T06:32:44.886Z,22.43
2018-10-16T06:35:13.291Z,20.30
2018-10-16T06:37:41.661Z,24.00
2018-10-16T06:40:10.763Z,25.10
2018-10-16T06:42:39.521Z,24.30
2018-10-16T06:45:09.267Z,23.20
2018-10-16T06:47:37.769Z,26.70
2018-10-16T06:50:07.506Z,29.90
2018-10-16T06:52:35.947Z,34.20
2018-10-16T06:55:04.431Z,29.57
2018-10-16T06:57:32.765Z,31.03
2018-10-16T07:00:01.253Z,34.27
2018-10-16T07:02:29.662Z,26.63
2018-10-16T07:04:58.057Z,28.40
2018-10-16T07:07:26.497Z,27.63
2018-10-16T07:09:54.875Z,27.33
2018-10-16T07:12:23.287Z,27.17
2018-10-16T07:14:51.704Z,27.43
2018-10-16T07:17:20.082Z,28.23
2018-10-16T07:19:48.478Z,31.00
2018-10-16T07:22:16.866Z,32.67
2018-10-16T07:24:45.267Z,31.60
2018-10-16T07:27:13.638Z,30.37
2018-10-16T07:29:42.050Z,33.17
2018-10-16T07:32:10.430Z,28.97
2018-10-16T07:34:38.830Z,25.20
2018-10-16T07:37:07.209Z,26.63
2018-10-16T07:39:35.621Z,24.13
2018-10-16T07:42:03.991Z,22.57
2018-10-16T07:44:32.427Z,25.23
2018-10-16T07:47:00.805Z,22.80
2018-10-16T07:49:29.226Z,23.83
2018-10-16T07:51:57.620Z,24.43
2018-10-16T07:54:26.028Z,24.13
2018-10-16T07:56:54.427Z,22.73
2018-10-16T07:59:22.838Z,20.20
2018-10-16T08:01:51.271Z,22.37
2018-10-16T08:04:19.663Z,21.87
2018-10-16T08:06:48.062Z,21.87
2018-10-16T08:09:17.120Z,19.67
2018-10-16T08:11:46.750Z,21.17
2018-10-16T08:14:16.326Z,19.87
2018-10-16T08:16:46.070Z,18.50
2018-10-16T08:19:14.826Z,20.10
2018-10-16T08:21:43.746Z,18.30
2018-10-16T08:24:12.126Z,18.87
2018-10-16T08:26:40.810Z,20.87
2018-10-16T08:29:09.678Z,20.67
2018-10-16T08:31:38.395Z,20.07
2018-10-16T08:34:07.079Z,20.00
2018-10-16T08:36:35.674Z,20.37
2018-10-16T08:39:10.652Z,19.13
2018-10-16T08:41:51.960Z,18.23
2018-10-16T08:45:35.586Z,20.57
2018-10-16T08:48:15.485Z,17.80
2018-10-16T08:50:55.083Z,18.47
2018-10-16T08:53:23.463Z,18.57
2018-10-16T08:55:51.866Z,19.53
2018-10-16T08:58:20.252Z,18.40
2018-10-16T09:00:48.653Z,18.83
2018-10-16T09:03:17.077Z,17.60
2018-10-16T09:05:45.473Z,17.23
2018-10-16T09:08:13.859Z,19.43
2018-10-16T09:10:42.278Z,18.60
2018-10-16T09:13:10.660Z,17.40
2018-10-16T09:15:39.033Z,17.13
2018-10-16T09:18:07.443Z,17.63
2018-10-16T09:20:35.821Z,18.97
2018-10-16T09:23:04.242Z,19.03
2018-10-16T09:25:32.621Z,17.60
2018-10-16T09:28:01.022Z,19.70
2018-10-16T09:30:29.417Z,17.97
2018-10-16T09:32:57.823Z,17.03
2018-10-16T09:35:26.225Z,17.40
2018-10-16T09:37:54.637Z,19.90
2018-10-16T09:40:23.025Z,17.53
2018-10-16T09:42:51.442Z,18.50
2018-10-16T09:45:19.831Z,18.00
2018-10-16T09:47:48.223Z,18.57
2018-10-16T09:50:16.600Z,17.30
2018-10-16T09:52:45.015Z,18.60
2018-10-16T09:55:13.406Z,15.77
2018-10-16T09:57:41.809Z,16.90
2018-10-16T10:00:16.707Z,18.10
2018-10-16T10:02:45.163Z,18.37
2018-10-16T10:05:13.539Z,20.47
2018-10-16T10:07:41.957Z,18.27
2018-10-16T10:10:10.511Z,17.57
2018-10-16T10:12:39.118Z,16.57
2018-10-16T10:15:07.726Z,16.70
2018-10-16T10:17:36.485Z,17.30
2018-10-16T10:20:05.358Z,16.53
2018-10-16T10:22:33.754Z,16.30
2018-10-16T10:25:02.143Z,15.70
2018-10-16T10:27:30.722Z,16.87
2018-10-16T10:29:59.117Z,21.83
2018-10-16T10:32:27.518Z,17.10
2018-10-16T10:34:55.904Z,15.70
2018-10-16T10:37:24.309Z,15.50
2018-10-16T10:39:52.695Z,15.70
2018-10-16T10:42:21.104Z,15.70
2018-10-16T10:44:49.762Z,18.33
2018-10-16T10:47:18.170Z,16.90
2018-10-16T10:49:46.562Z,16.37
2018-10-16T10:52:14.957Z,16.20
2018-10-16T10:54:43.378Z,15.77
2018-10-16T10:57:11.884Z,17.07
2018-10-16T10:59:40.250Z,16.97
2018-10-16T11:02:08.712Z,18.43
2018-10-16T11:04:37.199Z,17.27
2018-10-16T11:07:05.831Z,17.40
2018-10-16T11:09:34.263Z,16.83
2018-10-16T11:12:02.746Z,16.13
2018-10-16T11:14:31.141Z,17.70
2018-10-16T11:16:59.517Z,15.50
2018-10-16T11:19:27.980Z,15.83
2018-10-16T11:21:56.330Z,15.80
2018-10-16T11:24:24.731Z,14.80
2018-10-16T11:26:53.125Z,13.63
2018-10-16T11:29:21.541Z,15.50
2018-10-16T11:31:49.981Z,16.03
2018-10-16T11:34:18.385Z,14.10
2018-10-16T11:36:46.829Z,15.10
2018-10-16T11:39:15.280Z,15.00
2018-10-16T11:41:43.614Z,14.40
2018-10-16T11:44:13.070Z,15.97
2018-10-16T11:46:42.422Z,14.53
2018-10-16T11:49:10.826Z,16.03
2018-10-16T11:51:39.209Z,13.30
2018-10-16T11:54:08.206Z,14.73
2018-10-16T11:56:36.605Z,13.17
2018-10-16T11:59:05.234Z,13.53
2018-10-16T12:01:33.623Z,14.20
2018-10-16T12:04:02.129Z,13.13
2018-10-16T12:06:30.516Z,13.87
2018-10-16T12:08:58.943Z,15.03
2018-10-16T12:11:27.322Z,13.30
2018-10-16T12:13:55.740Z,13.63
2018-10-16T12:16:27.494Z,14.50
2018-10-16T12:19:05.713Z,15.03
2018-10-16T12:21:33.986Z,13.70
2018-10-16T12:24:02.394Z,14.70
2018-10-16T12:26:30.791Z,15.57
2018-10-16T12:28:59.252Z,14.13
2018-10-16T12:31:27.620Z,13.83
2018-10-16T12:33:56.064Z,15.20
2018-10-16T12:36:24.429Z,14.10
2018-10-16T12:38:52.833Z,15.13
2018-10-16T12:41:21.228Z,13.73
2018-10-16T12:43:49.649Z,14.63
2018-10-16T12:46:18.064Z,13.90
2018-10-16T12:48:46.494Z,13.80
2018-10-16T12:51:14.950Z,14.47
2018-10-16T12:53:43.323Z,14.80
2018-10-16T12:56:11.815Z,14.87
2018-10-16T12:58:40.133Z,13.57
2018-10-16T13:01:08.523Z,13.67
2018-10-16T13:03:36.979Z,13.13
2018-10-16T13:06:05.342Z,13.47
2018-10-16T13:08:33.714Z,14.53
2018-10-16T13:11:02.201Z,14.60
2018-10-16T13:13:30.540Z,14.73
2018-10-16T13:15:58.941Z,14.63
2018-10-16T13:18:27.337Z,12.97
2018-10-16T13:20:55.738Z,14.83
2018-10-16T13:23:24.139Z,15.03
2018-10-16T13:25:52.535Z,13.43
2018-10-16T13:28:20.931Z,14.27
2018-10-16T13:30:49.362Z,14.53
2018-10-16T13:33:17.747Z,14.37
2018-10-16T13:35:46.142Z,15.50
2018-10-16T13:38:14.610Z,13.10
2018-10-16T13:40:42.946Z,15.67
2018-10-16T13:43:11.325Z,13.87
2018-10-16T13:45:39.787Z,14.20
2018-10-16T13:48:08.162Z,13.70
2018-10-16T13:50:36.561Z,12.80
2018-10-16T13:53:05.172Z,13.07
2018-10-16T13:55:33.570Z,14.23
2018-10-16T13:58:01.973Z,14.77
2018-10-16T14:00:30.389Z,12.93
2018-10-16T14:02:58.769Z,13.90
2018-10-16T14:05:27.198Z,14.27
2018-10-16T14:07:55.603Z,13.33
2018-10-16T14:10:24.036Z,13.80
2018-10-16T14:12:52.420Z,14.10
2018-10-16T14:15:20.839Z,14.50
2018-10-16T14:17:49.218Z,14.10
2018-10-16T14:20:17.667Z,14.63
2018-10-16T14:22:46.059Z,13.70
2018-10-16T14:25:15.542Z,13.20
2018-10-16T14:27:44.203Z,13.87
2018-10-16T14:30:15.674Z,14.73
2018-10-16T14:32:44.351Z,13.20
2018-10-16T14:35:13.260Z,13.87
2018-10-16T14:37:41.814Z,12.67
2018-10-16T14:40:12.528Z,13.17
2018-10-16T14:42:40.931Z,12.80
2018-10-16T14:45:10.583Z,12.17
2018-10-16T14:47:39.126Z,13.63
2018-10-16T14:50:08.249Z,13.70
2018-10-16T14:52:36.642Z,13.57
2018-10-16T14:55:05.703Z,13.00
2018-10-16T14:57:34.259Z,14.43
2018-10-16T15:00:02.620Z,14.70
2018-10-16T15:02:31.020Z,14.53
2018-10-16T15:04:59.617Z,14.40
2018-10-16T15:07:28.087Z,15.77
2018-10-16T15:09:56.572Z,13.30
2018-10-16T15:12:32.158Z,13.40
2018-10-16T15:15:01.434Z,13.20
2018-10-16T15:17:30.587Z,14.37
2018-10-16T15:19:59.556Z,14.07
2018-10-16T15:22:28.544Z,13.70
2018-10-16T15:24:56.989Z,15.33
2018-10-16T15:27:25.407Z,15.17
2018-10-16T15:29:54.265Z,16.37
2018-10-16T15:32:22.661Z,14.97
2018-10-16T15:34:51.047Z,17.03
2018-10-16T15:37:19.450Z,15.30
2018-10-16T15:39:48.011Z,15.83
2018-10-16T15:42:16.527Z,12.90
2018-10-16T15:44:44.865Z,14.90
2018-10-16T15:47:13.276Z,14.43
2018-10-16T15:49:41.663Z,17.00
2018-10-16T15:52:10.096Z,18.00
2018-10-16T15:54:38.463Z,16.77
2018-10-16T15:57:06.854Z,18.70
2018-10-16T15:59:35.239Z,17.70
2018-10-16T16:02:03.657Z,17.67
2018-10-16T16:04:32.072Z,26.87
2018-10-16T16:07:00.477Z,25.20
2018-10-16T16:09:28.878Z,16.70
2018-10-16T16:11:57.307Z,16.27
2018-10-16T16:14:25.974Z,18.50
2018-10-16T16:16:54.376Z,16.57
2018-10-16T16:19:22.775Z,16.37
2018-10-16T16:21:51.239Z,17.87
2018-10-16T16:24:19.675Z,16.83
2018-10-16T16:26:48.085Z,17.43
2018-10-16T16:29:16.489Z,17.87
2018-10-16T16:31:44.931Z,18.67
2018-10-16T16:34:13.390Z,16.43
2018-10-16T16:36:41.815Z,17.10
2018-10-16T16:39:12.428Z,18.00
2018-10-16T16:41:40.884Z,17.70
2018-10-16T16:44:09.337Z,17.67
2018-10-16T16:46:37.955Z,18.20
2018-10-16T16:49:06.516Z,20.37
2018-10-16T16:51:34.945Z,19.37
2018-10-16T16:54:03.380Z,20.07
2018-10-16T16:56:32.065Z,19.20
2018-10-16T16:59:00.472Z,18.40
2018-10-16T17:01:28.875Z,20.00
2018-10-16T17:03:57.293Z,19.07
2018-10-16T17:06:25.680Z,20.83
2018-10-16T17:08:54.087Z,20.63
2018-10-16T17:11:22.456Z,21.50
2018-10-16T17:13:50.860Z,19.73
2018-10-16T17:16:19.238Z,19.10
2018-10-16T17:18:47.634Z,19.47
2018-10-16T17:21:16.037Z,19.40
2018-10-16T17:23:44.580Z,20.40
2018-10-16T17:26:13.311Z,21.07
2018-10-16T17:28:41.441Z,25.80
2018-10-16T17:31:09.990Z,19.10
2018-10-16T17:33:38.420Z,23.13
2018-10-16T17:36:06.817Z,20.23
2018-10-16T17:38:35.219Z,18.40
2018-10-16T17:41:03.598Z,17.80
2018-10-16T17:43:32.039Z,19.87
2018-10-16T17:46:00.457Z,17.23
2018-10-16T17:48:28.861Z,17.20
2018-10-16T17:50:57.284Z,18.37
2018-10-16T17:53:25.703Z,19.10
2018-10-16T17:55:54.076Z,18.00
2018-10-16T17:58:22.481Z,18.47
2018-10-16T18:00:50.857Z,17.60
2018-10-16T18:03:19.313Z,18.40
2018-10-16T18:05:47.708Z,19.97
2018-10-16T18:08:16.142Z,17.40
2018-10-16T18:10:44.513Z,16.47
2018-10-16T18:13:12.909Z,18.20
2018-10-16T18:15:41.290Z,21.50
2018-10-16T18:18:09.759Z,20.00
2018-10-16T18:20:38.086Z,23.67
2018-10-16T18:23:06.494Z,22.60
2018-10-16T18:25:34.869Z,19.30
2018-10-16T18:28:03.320Z,19.97
2018-10-16T18:30:31.677Z,19.40
2018-10-16T18:33:00.235Z,23.60
2018-10-16T18:35:28.586Z,23.43
2018-10-16T18:37:56.995Z,23.47
2018-10-16T18:40:25.370Z,24.80
2018-10-16T18:42:53.776Z,23.20
2018-10-16T18:45:22.157Z,22.17
2018-10-16T18:47:50.537Z,20.37
2018-10-16T18:50:19.035Z,21.90
2018-10-16T18:52:47.413Z,22.07
2018-10-16T18:55:16.033Z,22.73
2018-10-16T18:57:44.406Z,23.13
2018-10-16T19:00:14.341Z,24.07
2018-10-16T19:02:42.897Z,24.57
2018-10-16T19:05:11.502Z,24.43
2018-10-16T19:07:40.373Z,23.43
2018-10-16T19:10:08.778Z,22.23
2018-10-16T19:12:38.975Z,22.30
2018-10-16T19:15:08.686Z,24.17
2018-10-16T19:17:37.158Z,24.43
2018-10-16T19:20:06.650Z,26.23
2018-10-16T19:22:35.046Z,22.03
2018-10-16T19:25:03.454Z,22.90
2018-10-16T19:27:31.856Z,23.13
2018-10-16T19:30:00.287Z,26.17
2018-10-16T19:32:28.661Z,29.43
2018-10-16T19:34:57.061Z,30.00
2018-10-16T19:37:25.443Z,28.63
2018-10-16T19:39:53.842Z,28.33
2018-10-16T19:42:22.273Z,26.80
2018-10-16T19:44:50.711Z,26.57
2018-10-16T19:47:19.086Z,25.30
2018-10-16T19:49:47.483Z,25.43
2018-10-16T19:52:15.866Z,24.90
2018-10-16T19:54:44.261Z,28.70
2018-10-16T19:57:12.697Z,27.03
2018-10-16T19:59:41.114Z,21.43
2018-10-16T20:02:09.966Z,22.17
2018-10-16T20:04:38.953Z,26.43
2018-10-16T20:07:07.407Z,25.20
2018-10-16T20:09:35.775Z,24.80
2018-10-16T20:12:04.310Z,26.53
2018-10-16T20:14:32.751Z,27.03
2018-10-16T20:17:01.122Z,26.40
2018-10-16T20:19:29.546Z,26.97
2018-10-16T20:21:57.909Z,26.97
2018-10-16T20:24:26.310Z,25.30
2018-10-16T20:26:54.704Z,26.37
2018-10-16T20:29:23.115Z,21.80
2018-10-16T20:31:51.523Z,24.10
2018-10-16T20:34:19.893Z,25.70
2018-10-16T20:36:48.417Z,25.00
2018-10-16T20:39:16.789Z,28.47
2018-10-16T20:41:45.192Z,26.77
2018-10-16T20:44:13.574Z,26.30
2018-10-16T20:46:41.977Z,27.70
2018-10-16T20:49:10.407Z,27.77
2018-10-16T20:51:38.846Z,28.07
2018-10-16T20:54:07.219Z,27.73
2018-10-16T20:56:35.686Z,25.13
2018-10-16T20:59:04.086Z,24.90
2018-10-16T21:01:32.477Z,28.73
2018-10-16T21:04:00.856Z,28.17
2018-10-16T21:06:29.388Z,27.20
2018-10-16T21:08:57.664Z,28.27
2018-10-16T21:11:26.058Z,26.73
2018-10-16T21:13:54.426Z,30.87
2018-10-16T21:16:22.817Z,27.23
2018-10-16T21:18:51.191Z,26.67
2018-10-16T21:21:19.589Z,26.70
2018-10-16T21:23:47.962Z,24.83
2018-10-16T21:26:16.365Z,24.80
2018-10-16T21:28:44.729Z,27.17
2018-10-16T21:31:13.204Z,23.80
2018-10-16T21:33:41.541Z,24.87
2018-10-16T21:36:09.941Z,22.60
2018-10-16T21:38:38.313Z,21.93
2018-10-16T21:41:06.782Z,25.87
2018-10-16T21:43:35.235Z,22.77
2018-10-16T21:46:03.628Z,23.17
2018-10-16T21:48:31.999Z,24.83
2018-10-16T21:51:00.390Z,25.60
2018-10-16T21:53:28.761Z,24.27
2018-10-16T21:55:57.185Z,25.10
2018-10-16T21:58:25.557Z,26.93
2018-10-16T22:00:59.314Z,25.50
2018-10-16T22:03:27.690Z,25.20
2018-10-16T22:05:56.085Z,25.20
2018-10-16T22:08:24.453Z,24.10
2018-10-16T22:10:52.856Z,24.53
2018-10-16T22:13:21.229Z,25.60
2018-10-16T22:15:49.620Z,25.60
2018-10-16T22:18:17.993Z,26.83
2018-10-16T22:20:46.381Z,25.00
2018-10-16T22:23:14.798Z,26.53
2018-10-16T22:25:43.186Z,26.87
2018-10-16T22:28:11.581Z,25.10
2018-10-16T22:30:39.977Z,25.47
2018-10-16T22:33:08.374Z,25.23
2018-10-16T22:35:36.753Z,25.07
2018-10-16T22:38:05.581Z,23.70
2018-10-16T22:40:33.949Z,24.17
2018-10-16T22:43:02.430Z,26.27
2018-10-16T22:45:30.737Z,26.93
2018-10-16T22:47:59.133Z,25.20
2018-10-16T22:50:27.501Z,24.50
2018-10-16T22:52:55.916Z,25.67
2018-10-16T22:55:24.293Z,26.50
2018-10-16T22:57:52.685Z,26.30
2018-10-16T23:00:21.061Z,27.70
2018-10-16T23:02:49.557Z,27.10
2018-10-16T23:05:17.929Z,25.27
2018-10-16T23:07:47.069Z,26.53
2018-10-16T23:10:15.793Z,25.73
2018-10-16T23:12:44.609Z,25.10
2018-10-16T23:15:12.981Z,25.20
2018-10-16T23:17:41.569Z,25.63
2018-10-16T23:20:11.361Z,26.87
2018-10-16T23:22:39.762Z,24.97
2018-10-16T23:25:08.233Z,25.30
2018-10-16T23:27:36.829Z,24.00
2018-10-16T23:30:05.800Z,24.90
2018-10-16T23:32:34.193Z,24.10
2018-10-16T23:35:02.636Z,25.20
2018-10-16T23:37:30.983Z,26.13
2018-10-16T23:39:59.357Z,29.47
2018-10-16T23:42:27.887Z,27.80
2018-10-16T23:44:56.253Z,25.20
2018-10-16T23:47:24.649Z,28.57
2018-10-16T23:49:53.029Z,26.10
2018-10-16T23:52:21.424Z,25.87
2018-10-16T23:54:49.793Z,25.90
2018-10-16T23:57:18.193Z,25.93
2018-10-16T23:59:46.585Z,26.33
